sensor_id;sensor_type;location;lat;lon;timestamp;P1;durP1;ratioP1;P2;durP2;ratioP2
72427;SDS011;60419;48.880;18.036;2022-07-09T00:01:43;5.97;;;2.25;;
72427;SDS011;60419;48.880;18.036;2022-07-09T00:04:28;4.50;;;2.45;;
72427;SDS011;60419;48.880;18.036;2022-07-09T00:07:14;5.63;;;2.42;;
72427;SDS011;60419;48.880;18.036;2022-07-09T00:09:59;5.22;;;2.20;;
72427;SDS011;60419;48.880;18.036;2022-07-09T00:12:45;6.32;;;2.15;;
72427;SDS011;60419;48.880;18.036;2022-07-09T00:15:30;5.22;;;2.17;;
72427;SDS011;60419;48.880;18.036;2022-07-09T00:18:16;7.47;;;2.42;;
72427;SDS011;60419;48.880;18.036;2022-07-09T00:21:01;5.22;;;2.03;;
72427;SDS011;60419;48.880;18.036;2022-07-09T00:23:47;5.50;;;2.28;;
72427;SDS011;60419;48.880;18.036;2022-07-09T00:26:32;6.70;;;2.30;;
72427;SDS011;60419;48.880;18.036;2022-07-09T00:29:18;6.43;;;2.10;;
72427;SDS011;60419;48.880;18.036;2022-07-09T00:32:03;5.50;;;2.60;;
72427;SDS011;60419;48.880;18.036;2022-07-09T00:34:49;5.57;;;2.47;;
72427;SDS011;60419;48.880;18.036;2022-07-09T00:37:34;4.05;;;2.40;;
72427;SDS011;60419;48.880;18.036;2022-07-09T00:40:20;5.82;;;2.33;;
72427;SDS011;60419;48.880;18.036;2022-07-09T00:43:18;9.57;;;2.38;;
72427;SDS011;60419;48.880;18.036;2022-07-09T00:46:05;7.65;;;2.50;;
72427;SDS011;60419;48.880;18.036;2022-07-09T00:48:50;6.55;;;2.58;;
72427;SDS011;60419;48.880;18.036;2022-07-09T00:51:36;4.55;;;2.10;;
72427;SDS011;60419;48.880;18.036;2022-07-09T00:54:23;10.13;;;2.50;;
72427;SDS011;60419;48.880;18.036;2022-07-09T00:57:09;7.38;;;2.33;;
72427;SDS011;60419;48.880;18.036;2022-07-09T00:59:56;6.15;;;2.38;;
72427;SDS011;60419;48.880;18.036;2022-07-09T01:02:42;9.43;;;2.17;;
72427;SDS011;60419;48.880;18.036;2022-07-09T01:05:28;7.78;;;2.35;;
72427;SDS011;60419;48.880;18.036;2022-07-09T01:08:20;5.53;;;2.33;;
72427;SDS011;60419;48.880;18.036;2022-07-09T01:11:05;8.82;;;2.40;;
72427;SDS011;60419;48.880;18.036;2022-07-09T01:13:51;10.35;;;2.50;;
72427;SDS011;60419;48.880;18.036;2022-07-09T01:16:36;6.45;;;2.22;;
72427;SDS011;60419;48.880;18.036;2022-07-09T01:19:24;6.50;;;2.60;;
72427;SDS011;60419;48.880;18.036;2022-07-09T01:22:10;6.68;;;3.00;;
72427;SDS011;60419;48.880;18.036;2022-07-09T01:24:55;6.72;;;2.83;;
72427;SDS011;60419;48.880;18.036;2022-07-09T01:27:42;11.02;;;2.63;;
72427;SDS011;60419;48.880;18.036;2022-07-09T01:30:27;7.15;;;2.70;;
72427;SDS011;60419;48.880;18.036;2022-07-09T01:33:13;6.55;;;2.83;;
72427;SDS011;60419;48.880;18.036;2022-07-09T01:35:59;6.78;;;2.75;;
72427;SDS011;60419;48.880;18.036;2022-07-09T01:38:44;8.35;;;3.10;;
72427;SDS011;60419;48.880;18.036;2022-07-09T01:41:30;8.90;;;2.53;;
72427;SDS011;60419;48.880;18.036;2022-07-09T01:44:17;9.65;;;2.65;;
72427;SDS011;60419;48.880;18.036;2022-07-09T01:47:02;6.25;;;2.35;;
72427;SDS011;60419;48.880;18.036;2022-07-09T01:49:48;8.45;;;2.80;;
72427;SDS011;60419;48.880;18.036;2022-07-09T01:52:33;6.38;;;2.67;;
72427;SDS011;60419;48.880;18.036;2022-07-09T01:55:18;6.00;;;2.30;;
72427;SDS011;60419;48.880;18.036;2022-07-09T01:58:04;5.03;;;2.35;;
72427;SDS011;60419;48.880;18.036;2022-07-09T02:00:50;4.68;;;2.40;;
72427;SDS011;60419;48.880;18.036;2022-07-09T02:03:35;6.25;;;2.80;;
72427;SDS011;60419;48.880;18.036;2022-07-09T02:06:20;6.22;;;2.67;;
72427;SDS011;60419;48.880;18.036;2022-07-09T02:09:06;5.28;;;2.60;;
72427;SDS011;60419;48.880;18.036;2022-07-09T02:11:51;12.90;;;2.80;;
72427;SDS011;60419;48.880;18.036;2022-07-09T02:14:37;6.50;;;2.58;;
72427;SDS011;60419;48.880;18.036;2022-07-09T02:17:23;7.32;;;2.95;;
72427;SDS011;60419;48.880;18.036;2022-07-09T02:20:08;6.65;;;2.67;;
72427;SDS011;60419;48.880;18.036;2022-07-09T02:22:54;6.47;;;2.30;;
72427;SDS011;60419;48.880;18.036;2022-07-09T02:25:39;7.55;;;2.97;;
72427;SDS011;60419;48.880;18.036;2022-07-09T02:28:25;6.65;;;2.63;;
72427;SDS011;60419;48.880;18.036;2022-07-09T02:31:11;6.28;;;2.33;;
72427;SDS011;60419;48.880;18.036;2022-07-09T02:33:57;7.72;;;2.50;;
72427;SDS011;60419;48.880;18.036;2022-07-09T02:36:42;11.07;;;2.78;;
72427;SDS011;60419;48.880;18.036;2022-07-09T02:39:28;5.85;;;2.58;;
72427;SDS011;60419;48.880;18.036;2022-07-09T02:42:13;9.25;;;2.60;;
72427;SDS011;60419;48.880;18.036;2022-07-09T02:44:58;8.35;;;2.50;;
72427;SDS011;60419;48.880;18.036;2022-07-09T02:47:44;7.65;;;2.72;;
72427;SDS011;60419;48.880;18.036;2022-07-09T02:50:29;7.03;;;2.85;;
72427;SDS011;60419;48.880;18.036;2022-07-09T02:53:15;7.15;;;2.53;;
72427;SDS011;60419;48.880;18.036;2022-07-09T02:56:00;11.63;;;2.78;;
72427;SDS011;60419;48.880;18.036;2022-07-09T02:58:46;5.07;;;2.53;;
72427;SDS011;60419;48.880;18.036;2022-07-09T03:01:31;8.73;;;2.83;;
72427;SDS011;60419;48.880;18.036;2022-07-09T03:04:17;9.15;;;2.90;;
72427;SDS011;60419;48.880;18.036;2022-07-09T03:07:02;8.35;;;3.20;;
72427;SDS011;60419;48.880;18.036;2022-07-09T03:09:48;8.15;;;3.20;;
72427;SDS011;60419;48.880;18.036;2022-07-09T03:12:34;7.55;;;2.75;;
72427;SDS011;60419;48.880;18.036;2022-07-09T03:15:19;7.88;;;2.85;;
72427;SDS011;60419;48.880;18.036;2022-07-09T03:18:05;7.47;;;3.20;;
72427;SDS011;60419;48.880;18.036;2022-07-09T03:20:53;6.20;;;2.67;;
72427;SDS011;60419;48.880;18.036;2022-07-09T03:23:38;6.78;;;2.95;;
72427;SDS011;60419;48.880;18.036;2022-07-09T03:26:26;7.38;;;2.75;;
72427;SDS011;60419;48.880;18.036;2022-07-09T03:29:11;4.80;;;2.50;;
72427;SDS011;60419;48.880;18.036;2022-07-09T03:31:57;7.53;;;2.53;;
72427;SDS011;60419;48.880;18.036;2022-07-09T03:34:43;8.60;;;2.70;;
72427;SDS011;60419;48.880;18.036;2022-07-09T03:37:28;8.20;;;2.75;;
72427;SDS011;60419;48.880;18.036;2022-07-09T03:40:14;7.38;;;2.90;;
72427;SDS011;60419;48.880;18.036;2022-07-09T03:42:59;6.82;;;2.75;;
72427;SDS011;60419;48.880;18.036;2022-07-09T03:45:44;6.30;;;2.55;;
72427;SDS011;60419;48.880;18.036;2022-07-09T03:48:30;8.70;;;3.15;;
72427;SDS011;60419;48.880;18.036;2022-07-09T03:51:16;7.70;;;2.45;;
72427;SDS011;60419;48.880;18.036;2022-07-09T03:54:01;6.68;;;2.55;;
72427;SDS011;60419;48.880;18.036;2022-07-09T03:56:47;10.02;;;2.80;;
72427;SDS011;60419;48.880;18.036;2022-07-09T03:59:32;7.35;;;2.53;;
72427;SDS011;60419;48.880;18.036;2022-07-09T04:02:18;9.38;;;3.05;;
72427;SDS011;60419;48.880;18.036;2022-07-09T04:05:03;8.75;;;3.35;;
72427;SDS011;60419;48.880;18.036;2022-07-09T04:07:49;6.18;;;2.40;;
72427;SDS011;60419;48.880;18.036;2022-07-09T04:10:34;7.10;;;3.08;;
72427;SDS011;60419;48.880;18.036;2022-07-09T04:13:20;9.57;;;3.65;;
72427;SDS011;60419;48.880;18.036;2022-07-09T04:16:05;6.72;;;3.05;;
72427;SDS011;60419;48.880;18.036;2022-07-09T04:18:51;6.50;;;2.72;;
72427;SDS011;60419;48.880;18.036;2022-07-09T04:21:36;6.85;;;3.05;;
72427;SDS011;60419;48.880;18.036;2022-07-09T04:24:22;8.98;;;3.28;;
72427;SDS011;60419;48.880;18.036;2022-07-09T04:27:07;11.77;;;3.42;;
72427;SDS011;60419;48.880;18.036;2022-07-09T04:29:53;5.97;;;2.80;;
72427;SDS011;60419;48.880;18.036;2022-07-09T04:32:38;8.70;;;2.72;;
72427;SDS011;60419;48.880;18.036;2022-07-09T04:35:24;6.50;;;2.30;;
72427;SDS011;60419;48.880;18.036;2022-07-09T04:38:11;6.00;;;2.65;;
72427;SDS011;60419;48.880;18.036;2022-07-09T04:40:57;7.03;;;2.58;;
72427;SDS011;60419;48.880;18.036;2022-07-09T04:43:43;8.32;;;3.45;;
72427;SDS011;60419;48.880;18.036;2022-07-09T04:46:28;8.70;;;2.88;;
72427;SDS011;60419;48.880;18.036;2022-07-09T04:49:15;6.32;;;2.90;;
72427;SDS011;60419;48.880;18.036;2022-07-09T04:52:01;10.18;;;3.30;;
72427;SDS011;60419;48.880;18.036;2022-07-09T04:54:46;8.98;;;3.15;;
72427;SDS011;60419;48.880;18.036;2022-07-09T04:57:32;6.85;;;2.90;;
72427;SDS011;60419;48.880;18.036;2022-07-09T05:00:18;6.47;;;2.83;;
72427;SDS011;60419;48.880;18.036;2022-07-09T05:03:04;10.23;;;2.90;;
72427;SDS011;60419;48.880;18.036;2022-07-09T05:05:49;5.85;;;2.53;;
72427;SDS011;60419;48.880;18.036;2022-07-09T05:08:34;5.93;;;2.42;;
72427;SDS011;60419;48.880;18.036;2022-07-09T05:11:20;5.38;;;2.60;;
72427;SDS011;60419;48.880;18.036;2022-07-09T05:14:06;9.07;;;2.40;;
72427;SDS011;60419;48.880;18.036;2022-07-09T05:16:51;8.30;;;2.67;;
72427;SDS011;60419;48.880;18.036;2022-07-09T05:19:37;9.77;;;2.40;;
72427;SDS011;60419;48.880;18.036;2022-07-09T05:22:22;8.13;;;2.58;;
72427;SDS011;60419;48.880;18.036;2022-07-09T05:25:08;9.32;;;2.97;;
72427;SDS011;60419;48.880;18.036;2022-07-09T05:27:53;6.85;;;2.63;;
72427;SDS011;60419;48.880;18.036;2022-07-09T05:30:39;8.25;;;3.08;;
72427;SDS011;60419;48.880;18.036;2022-07-09T05:33:24;7.95;;;2.88;;
72427;SDS011;60419;48.880;18.036;2022-07-09T05:36:09;8.70;;;2.50;;
72427;SDS011;60419;48.880;18.036;2022-07-09T05:38:55;8.05;;;2.58;;
72427;SDS011;60419;48.880;18.036;2022-07-09T05:41:45;5.38;;;2.20;;
72427;SDS011;60419;48.880;18.036;2022-07-09T05:44:30;8.15;;;2.80;;
72427;SDS011;60419;48.880;18.036;2022-07-09T05:47:16;6.53;;;2.10;;
72427;SDS011;60419;48.880;18.036;2022-07-09T05:50:02;5.82;;;2.10;;
72427;SDS011;60419;48.880;18.036;2022-07-09T05:52:47;4.85;;;2.17;;
72427;SDS011;60419;48.880;18.036;2022-07-09T05:55:33;5.90;;;2.40;;
72427;SDS011;60419;48.880;18.036;2022-07-09T05:58:18;7.18;;;2.33;;
72427;SDS011;60419;48.880;18.036;2022-07-09T06:01:04;5.13;;;2.42;;
72427;SDS011;60419;48.880;18.036;2022-07-09T06:03:50;5.85;;;2.20;;
72427;SDS011;60419;48.880;18.036;2022-07-09T06:06:35;6.95;;;2.20;;
72427;SDS011;60419;48.880;18.036;2022-07-09T06:09:21;5.35;;;2.13;;
72427;SDS011;60419;48.880;18.036;2022-07-09T06:12:06;6.80;;;2.08;;
72427;SDS011;60419;48.880;18.036;2022-07-09T06:14:52;6.72;;;2.30;;
72427;SDS011;60419;48.880;18.036;2022-07-09T06:17:38;5.93;;;2.50;;
72427;SDS011;60419;48.880;18.036;2022-07-09T06:20:24;7.55;;;2.28;;
72427;SDS011;60419;48.880;18.036;2022-07-09T06:23:09;5.90;;;2.42;;
72427;SDS011;60419;48.880;18.036;2022-07-09T06:25:55;6.85;;;2.28;;
72427;SDS011;60419;48.880;18.036;2022-07-09T06:28:40;7.72;;;2.53;;
72427;SDS011;60419;48.880;18.036;2022-07-09T06:31:26;6.35;;;2.33;;
72427;SDS011;60419;48.880;18.036;2022-07-09T06:34:11;7.20;;;2.65;;
72427;SDS011;60419;48.880;18.036;2022-07-09T06:36:57;6.07;;;2.05;;
72427;SDS011;60419;48.880;18.036;2022-07-09T06:39:42;4.95;;;1.90;;
72427;SDS011;60419;48.880;18.036;2022-07-09T06:42:30;7.82;;;2.20;;
72427;SDS011;60419;48.880;18.036;2022-07-09T06:45:16;7.13;;;2.22;;
72427;SDS011;60419;48.880;18.036;2022-07-09T06:48:01;6.75;;;2.40;;
72427;SDS011;60419;48.880;18.036;2022-07-09T06:50:47;6.65;;;2.22;;
72427;SDS011;60419;48.880;18.036;2022-07-09T06:53:33;4.43;;;1.80;;
72427;SDS011;60419;48.880;18.036;2022-07-09T06:56:18;4.22;;;1.80;;
72427;SDS011;60419;48.880;18.036;2022-07-09T06:59:03;6.60;;;2.30;;
72427;SDS011;60419;48.880;18.036;2022-07-09T07:01:49;4.97;;;2.00;;
72427;SDS011;60419;48.880;18.036;2022-07-09T07:04:34;3.65;;;1.60;;
72427;SDS011;60419;48.880;18.036;2022-07-09T07:07:20;7.63;;;1.80;;
72427;SDS011;60419;48.880;18.036;2022-07-09T07:10:05;4.40;;;1.67;;
72427;SDS011;60419;48.880;18.036;2022-07-09T07:12:51;4.72;;;1.70;;
72427;SDS011;60419;48.880;18.036;2022-07-09T07:15:36;4.15;;;1.60;;
72427;SDS011;60419;48.880;18.036;2022-07-09T07:18:22;4.07;;;1.58;;
72427;SDS011;60419;48.880;18.036;2022-07-09T07:21:07;4.68;;;1.50;;
72427;SDS011;60419;48.880;18.036;2022-07-09T07:23:52;4.72;;;1.58;;
72427;SDS011;60419;48.880;18.036;2022-07-09T07:26:38;2.88;;;1.20;;
72427;SDS011;60419;48.880;18.036;2022-07-09T07:29:24;4.13;;;1.40;;
72427;SDS011;60419;48.880;18.036;2022-07-09T07:32:09;3.45;;;1.38;;
72427;SDS011;60419;48.880;18.036;2022-07-09T07:34:55;3.22;;;1.30;;
72427;SDS011;60419;48.880;18.036;2022-07-09T07:37:40;4.70;;;1.02;;
72427;SDS011;60419;48.880;18.036;2022-07-09T07:40:25;3.05;;;1.15;;
72427;SDS011;60419;48.880;18.036;2022-07-09T07:43:11;1.65;;;0.90;;
72427;SDS011;60419;48.880;18.036;2022-07-09T07:45:57;2.17;;;1.13;;
72427;SDS011;60419;48.880;18.036;2022-07-09T07:48:42;2.00;;;0.77;;
72427;SDS011;60419;48.880;18.036;2022-07-09T07:51:28;2.05;;;0.85;;
72427;SDS011;60419;48.880;18.036;2022-07-09T07:54:13;2.50;;;1.10;;
72427;SDS011;60419;48.880;18.036;2022-07-09T07:56:59;1.38;;;0.88;;
72427;SDS011;60419;48.880;18.036;2022-07-09T07:59:44;4.07;;;1.45;;
72427;SDS011;60419;48.880;18.036;2022-07-09T08:02:31;4.82;;;1.23;;
72427;SDS011;60419;48.880;18.036;2022-07-09T08:05:16;2.03;;;0.93;;
72427;SDS011;60419;48.880;18.036;2022-07-09T08:08:02;2.95;;;1.30;;
72427;SDS011;60419;48.880;18.036;2022-07-09T08:10:48;2.20;;;0.90;;
72427;SDS011;60419;48.880;18.036;2022-07-09T08:13:33;3.03;;;0.95;;
72427;SDS011;60419;48.880;18.036;2022-07-09T08:16:21;2.33;;;0.85;;
72427;SDS011;60419;48.880;18.036;2022-07-09T08:19:06;3.25;;;1.30;;
72427;SDS011;60419;48.880;18.036;2022-07-09T08:21:52;2.38;;;1.20;;
72427;SDS011;60419;48.880;18.036;2022-07-09T08:24:37;3.60;;;1.20;;
72427;SDS011;60419;48.880;18.036;2022-07-09T08:27:22;3.08;;;1.05;;
72427;SDS011;60419;48.880;18.036;2022-07-09T08:30:08;2.08;;;1.00;;
72427;SDS011;60419;48.880;18.036;2022-07-09T08:32:54;2.35;;;1.10;;
72427;SDS011;60419;48.880;18.036;2022-07-09T08:35:40;2.83;;;1.13;;
72427;SDS011;60419;48.880;18.036;2022-07-09T08:38:25;1.88;;;0.98;;
72427;SDS011;60419;48.880;18.036;2022-07-09T08:41:10;1.42;;;0.90;;
72427;SDS011;60419;48.880;18.036;2022-07-09T08:43:58;2.80;;;1.08;;
72427;SDS011;60419;48.880;18.036;2022-07-09T08:46:46;2.97;;;1.10;;
72427;SDS011;60419;48.880;18.036;2022-07-09T08:49:31;2.25;;;1.17;;
72427;SDS011;60419;48.880;18.036;2022-07-09T08:52:17;1.60;;;1.10;;
72427;SDS011;60419;48.880;18.036;2022-07-09T08:55:04;1.92;;;1.10;;
72427;SDS011;60419;48.880;18.036;2022-07-09T08:57:50;1.50;;;0.90;;
72427;SDS011;60419;48.880;18.036;2022-07-09T09:00:36;4.05;;;1.50;;
72427;SDS011;60419;48.880;18.036;2022-07-09T09:03:21;1.33;;;1.00;;
72427;SDS011;60419;48.880;18.036;2022-07-09T09:06:08;3.03;;;1.05;;
72427;SDS011;60419;48.880;18.036;2022-07-09T09:08:54;2.63;;;1.10;;
72427;SDS011;60419;48.880;18.036;2022-07-09T09:11:40;4.35;;;1.10;;
72427;SDS011;60419;48.880;18.036;2022-07-09T09:14:25;3.78;;;1.08;;
72427;SDS011;60419;48.880;18.036;2022-07-09T09:17:14;2.97;;;1.20;;
72427;SDS011;60419;48.880;18.036;2022-07-09T09:19:59;2.63;;;1.27;;
72427;SDS011;60419;48.880;18.036;2022-07-09T09:22:56;2.90;;;1.17;;
72427;SDS011;60419;48.880;18.036;2022-07-09T09:25:49;2.92;;;1.30;;
72427;SDS011;60419;48.880;18.036;2022-07-09T09:28:34;2.70;;;1.30;;
72427;SDS011;60419;48.880;18.036;2022-07-09T09:31:23;2.60;;;1.40;;
72427;SDS011;60419;48.880;18.036;2022-07-09T09:34:11;2.15;;;1.30;;
72427;SDS011;60419;48.880;18.036;2022-07-09T09:36:59;2.10;;;1.10;;
72427;SDS011;60419;48.880;18.036;2022-07-09T09:39:49;2.75;;;1.23;;
72427;SDS011;60419;48.880;18.036;2022-07-09T09:42:36;2.78;;;1.00;;
72427;SDS011;60419;48.880;18.036;2022-07-09T09:45:25;2.00;;;1.10;;
72427;SDS011;60419;48.880;18.036;2022-07-09T09:48:11;3.58;;;1.50;;
72427;SDS011;60419;48.880;18.036;2022-07-09T09:50:57;2.08;;;1.10;;
72427;SDS011;60419;48.880;18.036;2022-07-09T09:53:46;3.90;;;1.17;;
72427;SDS011;60419;48.880;18.036;2022-07-09T09:56:32;2.35;;;1.30;;
72427;SDS011;60419;48.880;18.036;2022-07-09T09:59:18;1.80;;;1.10;;
72427;SDS011;60419;48.880;18.036;2022-07-09T10:02:07;2.63;;;1.13;;
72427;SDS011;60419;48.880;18.036;2022-07-09T10:04:56;2.40;;;1.20;;
72427;SDS011;60419;48.880;18.036;2022-07-09T10:07:42;2.83;;;1.30;;
72427;SDS011;60419;48.880;18.036;2022-07-09T10:10:29;4.18;;;1.23;;
72427;SDS011;60419;48.880;18.036;2022-07-09T10:13:19;4.57;;;1.38;;
72427;SDS011;60419;48.880;18.036;2022-07-09T10:16:06;3.53;;;1.40;;
72427;SDS011;60419;48.880;18.036;2022-07-09T10:18:52;2.08;;;1.10;;
72427;SDS011;60419;48.880;18.036;2022-07-09T10:21:39;3.88;;;1.10;;
72427;SDS011;60419;48.880;18.036;2022-07-09T10:24:26;2.78;;;1.30;;
72427;SDS011;60419;48.880;18.036;2022-07-09T10:27:13;3.60;;;1.65;;
72427;SDS011;60419;48.880;18.036;2022-07-09T10:29:59;3.33;;;1.20;;
72427;SDS011;60419;48.880;18.036;2022-07-09T10:32:47;3.47;;;1.45;;
72427;SDS011;60419;48.880;18.036;2022-07-09T10:35:55;4.07;;;1.63;;
72427;SDS011;60419;48.880;18.036;2022-07-09T10:38:41;3.97;;;1.60;;
72427;SDS011;60419;48.880;18.036;2022-07-09T10:41:39;3.80;;;1.60;;
72427;SDS011;60419;48.880;18.036;2022-07-09T10:44:28;3.13;;;1.35;;
72427;SDS011;60419;48.880;18.036;2022-07-09T10:47:19;2.13;;;1.15;;
72427;SDS011;60419;48.880;18.036;2022-07-09T10:50:05;3.83;;;1.40;;
72427;SDS011;60419;48.880;18.036;2022-07-09T10:52:51;2.30;;;1.30;;
72427;SDS011;60419;48.880;18.036;2022-07-09T10:55:37;3.38;;;1.30;;
72427;SDS011;60419;48.880;18.036;2022-07-09T10:58:26;2.95;;;1.20;;
72427;SDS011;60419;48.880;18.036;2022-07-09T11:01:18;2.70;;;1.20;;
72427;SDS011;60419;48.880;18.036;2022-07-09T11:04:06;2.80;;;1.30;;
72427;SDS011;60419;48.880;18.036;2022-07-09T11:06:51;3.08;;;1.23;;
72427;SDS011;60419;48.880;18.036;2022-07-09T11:09:37;7.15;;;1.58;;
72427;SDS011;60419;48.880;18.036;2022-07-09T11:12:22;2.63;;;1.10;;
72427;SDS011;60419;48.880;18.036;2022-07-09T11:15:08;3.75;;;1.30;;
72427;SDS011;60419;48.880;18.036;2022-07-09T11:18:05;2.17;;;1.10;;
72427;SDS011;60419;48.880;18.036;2022-07-09T11:20:50;4.93;;;1.23;;
72427;SDS011;60419;48.880;18.036;2022-07-09T11:23:36;2.05;;;1.10;;
72427;SDS011;60419;48.880;18.036;2022-07-09T11:26:21;2.67;;;1.10;;
72427;SDS011;60419;48.880;18.036;2022-07-09T11:29:07;2.10;;;1.15;;
72427;SDS011;60419;48.880;18.036;2022-07-09T11:31:54;2.47;;;1.30;;
72427;SDS011;60419;48.880;18.036;2022-07-09T11:34:39;3.33;;;1.20;;
72427;SDS011;60419;48.880;18.036;2022-07-09T11:37:34;3.38;;;1.20;;
72427;SDS011;60419;48.880;18.036;2022-07-09T11:40:20;1.83;;;0.93;;
72427;SDS011;60419;48.880;18.036;2022-07-09T11:43:15;2.17;;;1.20;;
72427;SDS011;60419;48.880;18.036;2022-07-09T11:46:00;2.65;;;1.42;;
72427;SDS011;60419;48.880;18.036;2022-07-09T11:48:52;1.83;;;1.05;;
72427;SDS011;60419;48.880;18.036;2022-07-09T11:51:38;4.18;;;1.17;;
72427;SDS011;60419;48.880;18.036;2022-07-09T11:54:30;3.95;;;1.30;;
72427;SDS011;60419;48.880;18.036;2022-07-09T11:57:19;3.47;;;1.20;;
72427;SDS011;60419;48.880;18.036;2022-07-09T12:00:07;3.42;;;1.40;;
72427;SDS011;60419;48.880;18.036;2022-07-09T12:03:05;2.58;;;1.20;;
72427;SDS011;60419;48.880;18.036;2022-07-09T12:05:50;2.25;;;1.27;;
72427;SDS011;60419;48.880;18.036;2022-07-09T12:08:37;2.30;;;1.23;;
72427;SDS011;60419;48.880;18.036;2022-07-09T12:11:26;2.33;;;1.23;;
72427;SDS011;60419;48.880;18.036;2022-07-09T12:14:11;2.58;;;1.40;;
72427;SDS011;60419;48.880;18.036;2022-07-09T12:16:58;3.33;;;1.30;;
72427;SDS011;60419;48.880;18.036;2022-07-09T12:19:43;3.72;;;1.30;;
72427;SDS011;60419;48.880;18.036;2022-07-09T12:22:29;3.17;;;1.38;;
72427;SDS011;60419;48.880;18.036;2022-07-09T12:25:14;3.17;;;1.25;;
72427;SDS011;60419;48.880;18.036;2022-07-09T12:27:59;5.05;;;1.40;;
72427;SDS011;60419;48.880;18.036;2022-07-09T12:30:45;2.80;;;1.20;;
72427;SDS011;60419;48.880;18.036;2022-07-09T12:33:30;2.20;;;1.20;;
72427;SDS011;60419;48.880;18.036;2022-07-09T12:36:16;4.70;;;1.40;;
72427;SDS011;60419;48.880;18.036;2022-07-09T12:39:01;3.05;;;1.30;;
72427;SDS011;60419;48.880;18.036;2022-07-09T12:41:47;3.17;;;1.10;;
72427;SDS011;60419;48.880;18.036;2022-07-09T12:44:32;2.65;;;1.08;;
72427;SDS011;60419;48.880;18.036;2022-07-09T12:47:18;3.22;;;1.00;;
72427;SDS011;60419;48.880;18.036;2022-07-09T12:50:04;1.52;;;0.90;;
72427;SDS011;60419;48.880;18.036;2022-07-09T12:52:50;3.30;;;1.00;;
72427;SDS011;60419;48.880;18.036;2022-07-09T12:55:36;3.28;;;1.10;;
72427;SDS011;60419;48.880;18.036;2022-07-09T12:58:22;2.35;;;1.00;;
72427;SDS011;60419;48.880;18.036;2022-07-09T13:01:07;2.10;;;0.85;;
72427;SDS011;60419;48.880;18.036;2022-07-09T13:03:52;2.88;;;1.25;;
72427;SDS011;60419;48.880;18.036;2022-07-09T13:06:38;1.30;;;0.80;;
72427;SDS011;60419;48.880;18.036;2022-07-09T13:09:24;2.00;;;1.00;;
72427;SDS011;60419;48.880;18.036;2022-07-09T13:12:09;2.33;;;1.25;;
72427;SDS011;60419;48.880;18.036;2022-07-09T13:14:55;4.97;;;1.35;;
72427;SDS011;60419;48.880;18.036;2022-07-09T13:17:40;2.67;;;1.20;;
72427;SDS011;60419;48.880;18.036;2022-07-09T13:20:25;2.10;;;0.95;;
72427;SDS011;60419;48.880;18.036;2022-07-09T13:23:11;1.13;;;0.93;;
72427;SDS011;60419;48.880;18.036;2022-07-09T13:25:57;1.67;;;0.90;;
72427;SDS011;60419;48.880;18.036;2022-07-09T13:28:43;1.67;;;0.95;;
72427;SDS011;60419;48.880;18.036;2022-07-09T13:31:28;4.18;;;1.15;;
72427;SDS011;60419;48.880;18.036;2022-07-09T13:34:14;2.05;;;1.10;;
72427;SDS011;60419;48.880;18.036;2022-07-09T13:36:59;1.48;;;0.85;;
72427;SDS011;60419;48.880;18.036;2022-07-09T13:39:45;3.25;;;1.40;;
72427;SDS011;60419;48.880;18.036;2022-07-09T13:42:31;1.45;;;0.90;;
72427;SDS011;60419;48.880;18.036;2022-07-09T13:45:16;2.10;;;0.90;;
72427;SDS011;60419;48.880;18.036;2022-07-09T13:48:02;1.67;;;0.93;;
72427;SDS011;60419;48.880;18.036;2022-07-09T13:50:47;1.40;;;0.75;;
72427;SDS011;60419;48.880;18.036;2022-07-09T13:53:33;2.42;;;0.95;;
72427;SDS011;60419;48.880;18.036;2022-07-09T13:56:18;2.72;;;0.98;;
72427;SDS011;60419;48.880;18.036;2022-07-09T13:59:04;1.85;;;1.02;;
72427;SDS011;60419;48.880;18.036;2022-07-09T14:01:49;1.17;;;0.70;;
72427;SDS011;60419;48.880;18.036;2022-07-09T14:04:35;1.80;;;1.00;;
72427;SDS011;60419;48.880;18.036;2022-07-09T14:07:20;3.00;;;1.10;;
72427;SDS011;60419;48.880;18.036;2022-07-09T14:10:06;2.65;;;0.90;;
72427;SDS011;60419;48.880;18.036;2022-07-09T14:12:52;2.85;;;1.02;;
72427;SDS011;60419;48.880;18.036;2022-07-09T14:15:37;1.90;;;0.95;;
72427;SDS011;60419;48.880;18.036;2022-07-09T14:18:23;2.83;;;1.00;;
72427;SDS011;60419;48.880;18.036;2022-07-09T14:21:08;1.52;;;0.90;;
72427;SDS011;60419;48.880;18.036;2022-07-09T14:23:54;1.88;;;1.00;;
72427;SDS011;60419;48.880;18.036;2022-07-09T14:26:39;1.90;;;0.90;;
72427;SDS011;60419;48.880;18.036;2022-07-09T14:29:28;1.30;;;0.80;;
72427;SDS011;60419;48.880;18.036;2022-07-09T14:32:14;1.58;;;0.80;;
72427;SDS011;60419;48.880;18.036;2022-07-09T14:34:59;2.00;;;0.98;;
72427;SDS011;60419;48.880;18.036;2022-07-09T14:37:45;1.92;;;1.00;;
72427;SDS011;60419;48.880;18.036;2022-07-09T14:40:30;2.30;;;0.90;;
72427;SDS011;60419;48.880;18.036;2022-07-09T14:43:15;2.03;;;0.90;;
72427;SDS011;60419;48.880;18.036;2022-07-09T14:46:01;2.47;;;0.98;;
72427;SDS011;60419;48.880;18.036;2022-07-09T14:48:46;2.42;;;1.00;;
72427;SDS011;60419;48.880;18.036;2022-07-09T14:51:32;2.08;;;1.05;;
72427;SDS011;60419;48.880;18.036;2022-07-09T14:54:18;1.90;;;0.93;;
72427;SDS011;60419;48.880;18.036;2022-07-09T14:57:04;2.35;;;1.00;;
72427;SDS011;60419;48.880;18.036;2022-07-09T14:59:49;1.70;;;1.15;;
72427;SDS011;60419;48.880;18.036;2022-07-09T15:02:35;1.50;;;0.90;;
72427;SDS011;60419;48.880;18.036;2022-07-09T15:05:20;1.77;;;1.00;;
72427;SDS011;60419;48.880;18.036;2022-07-09T15:08:06;2.13;;;1.08;;
72427;SDS011;60419;48.880;18.036;2022-07-09T15:10:51;3.03;;;1.10;;
72427;SDS011;60419;48.880;18.036;2022-07-09T15:13:37;3.65;;;1.00;;
72427;SDS011;60419;48.880;18.036;2022-07-09T15:16:22;3.28;;;0.90;;
72427;SDS011;60419;48.880;18.036;2022-07-09T15:19:08;3.90;;;1.30;;
72427;SDS011;60419;48.880;18.036;2022-07-09T15:21:53;2.13;;;1.00;;
72427;SDS011;60419;48.880;18.036;2022-07-09T15:24:38;2.40;;;1.00;;
72427;SDS011;60419;48.880;18.036;2022-07-09T15:27:24;1.90;;;0.90;;
72427;SDS011;60419;48.880;18.036;2022-07-09T15:30:09;1.50;;;0.88;;
72427;SDS011;60419;48.880;18.036;2022-07-09T15:32:55;2.60;;;1.20;;
72427;SDS011;60419;48.880;18.036;2022-07-09T15:35:41;2.10;;;1.00;;
72427;SDS011;60419;48.880;18.036;2022-07-09T15:38:27;2.28;;;1.08;;
72427;SDS011;60419;48.880;18.036;2022-07-09T15:41:12;2.80;;;0.88;;
72427;SDS011;60419;48.880;18.036;2022-07-09T15:43:58;3.15;;;1.10;;
72427;SDS011;60419;48.880;18.036;2022-07-09T15:46:46;1.50;;;0.90;;
72427;SDS011;60419;48.880;18.036;2022-07-09T15:49:31;2.33;;;1.00;;
72427;SDS011;60419;48.880;18.036;2022-07-09T15:52:17;1.50;;;1.00;;
72427;SDS011;60419;48.880;18.036;2022-07-09T15:55:07;2.15;;;1.08;;
72427;SDS011;60419;48.880;18.036;2022-07-09T15:57:53;2.35;;;1.10;;
72427;SDS011;60419;48.880;18.036;2022-07-09T16:00:39;2.22;;;1.00;;
72427;SDS011;60419;48.880;18.036;2022-07-09T16:03:24;1.95;;;1.05;;
72427;SDS011;60419;48.880;18.036;2022-07-09T16:06:10;2.80;;;1.10;;
72427;SDS011;60419;48.880;18.036;2022-07-09T16:08:55;2.30;;;0.90;;
72427;SDS011;60419;48.880;18.036;2022-07-09T16:11:41;2.25;;;1.13;;
72427;SDS011;60419;48.880;18.036;2022-07-09T16:14:45;2.53;;;1.15;;
72427;SDS011;60419;48.880;18.036;2022-07-09T16:17:30;3.30;;;1.15;;
72427;SDS011;60419;48.880;18.036;2022-07-09T16:20:16;5.43;;;1.17;;
72427;SDS011;60419;48.880;18.036;2022-07-09T16:23:01;1.50;;;0.90;;
72427;SDS011;60419;48.880;18.036;2022-07-09T16:25:47;2.90;;;1.00;;